createdAt,value
2018-05-27T00:01:32.492Z,5.77
2018-05-27T00:03:43.550Z,6.33
2018-05-27T00:05:54.722Z,5.63
2018-05-27T00:08:05.866Z,5.87
2018-05-27T00:10:17.025Z,4.80
2018-05-27T00:12:28.106Z,5.30
2018-05-27T00:14:39.237Z,5.93
2018-05-27T00:16:50.407Z,5.90
2018-05-27T00:19:01.484Z,5.63
2018-05-27T00:21:12.577Z,5.87
2018-05-27T00:23:23.651Z,5.37
2018-05-27T00:25:34.843Z,5.33
2018-05-27T00:27:45.890Z,5.47
2018-05-27T00:29:57.006Z,5.27
2018-05-27T00:32:08.127Z,5.30
2018-05-27T00:34:19.266Z,5.20
2018-05-27T00:36:30.402Z,5.10
2018-05-27T00:38:41.458Z,5.20
2018-05-27T00:40:52.563Z,5.30
2018-05-27T00:43:03.650Z,5.50
2018-05-27T00:45:14.723Z,5.13
2018-05-27T00:47:25.886Z,5.63
2018-05-27T00:49:37.047Z,5.57
2018-05-27T00:51:48.103Z,5.70
2018-05-27T00:53:59.376Z,5.43
2018-05-27T00:56:10.443Z,5.13
2018-05-27T00:58:21.558Z,5.97
2018-05-27T01:00:32.635Z,5.80
2018-05-27T01:02:43.701Z,5.90
2018-05-27T01:04:54.937Z,5.60
2018-05-27T01:07:05.999Z,5.63
2018-05-27T01:09:17.239Z,5.43
2018-05-27T01:11:28.382Z,5.37
2018-05-27T01:13:39.463Z,5.27
2018-05-27T01:15:50.591Z,4.87
2018-05-27T01:18:01.683Z,5.60
2018-05-27T01:20:12.770Z,5.60
2018-05-27T01:22:23.842Z,5.40
2018-05-27T01:24:34.976Z,5.73
2018-05-27T01:26:46.077Z,5.20
2018-05-27T01:28:57.261Z,5.50
2018-05-27T01:31:08.349Z,5.60
2018-05-27T01:33:19.508Z,5.60
2018-05-27T01:35:30.614Z,6.00
2018-05-27T01:37:41.683Z,6.00
2018-05-27T01:39:52.746Z,5.63
2018-05-27T01:42:03.834Z,5.60
2018-05-27T01:44:14.923Z,6.23
2018-05-27T01:46:26.127Z,5.40
2018-05-27T01:48:37.262Z,6.20
2018-05-27T01:50:48.412Z,6.80
2018-05-27T01:52:59.490Z,5.43
2018-05-27T01:55:10.570Z,6.97
2018-05-27T01:57:21.662Z,6.43
2018-05-27T01:59:32.731Z,6.47
2018-05-27T02:01:43.887Z,6.30
2018-05-27T02:03:55.003Z,6.37
2018-05-27T02:06:06.125Z,6.50
2018-05-27T02:08:17.352Z,5.67
2018-05-27T02:10:28.414Z,4.60
2018-05-27T02:12:39.502Z,6.80
2018-05-27T02:14:50.599Z,6.07
2018-05-27T02:17:01.763Z,6.87
2018-05-27T02:19:12.887Z,5.80
2018-05-27T02:21:23.995Z,4.97
2018-05-27T02:23:35.228Z,6.87
2018-05-27T02:25:46.355Z,5.83
2018-05-27T02:27:57.545Z,7.40
2018-05-27T02:30:08.625Z,7.37
2018-05-27T02:32:19.736Z,6.77
2018-05-27T02:34:30.825Z,6.57
2018-05-27T02:36:41.932Z,6.93
2018-05-27T02:38:53.111Z,6.07
2018-05-27T02:41:04.170Z,6.10
2018-05-27T02:43:15.334Z,6.50
2018-05-27T02:45:26.406Z,6.10
2018-05-27T02:47:37.579Z,6.37
2018-05-27T02:49:48.662Z,6.07
2018-05-27T02:51:59.746Z,4.70
2018-05-27T02:54:10.831Z,6.57
2018-05-27T02:56:21.935Z,5.90
2018-05-27T02:58:33.130Z,6.50
2018-05-27T03:00:44.239Z,5.50
2018-05-27T03:02:55.480Z,5.87
2018-05-27T03:05:06.608Z,5.47
2018-05-27T03:07:17.796Z,6.07
2018-05-27T03:09:28.895Z,6.60
2018-05-27T03:11:39.964Z,6.10
2018-05-27T03:13:51.051Z,5.47
2018-05-27T03:16:02.136Z,5.47
2018-05-27T03:18:13.314Z,6.00
2018-05-27T03:20:24.419Z,6.43
2018-05-27T03:22:35.524Z,6.23
2018-05-27T03:24:46.562Z,5.70
2018-05-27T03:26:57.755Z,6.70
2018-05-27T03:29:08.806Z,5.50
2018-05-27T03:31:19.894Z,5.87
2018-05-27T03:33:30.992Z,5.23
2018-05-27T03:35:42.052Z,5.90
2018-05-27T03:37:53.255Z,5.80
2018-05-27T03:40:04.346Z,5.73
2018-05-27T03:42:15.518Z,5.47
2018-05-27T03:44:26.578Z,6.80
2018-05-27T03:46:37.658Z,6.37
2018-05-27T03:48:48.723Z,6.67
2018-05-27T03:50:59.813Z,5.73
2018-05-27T03:53:10.895Z,7.00
2018-05-27T03:55:22.067Z,6.33
2018-05-27T03:57:33.246Z,5.63
2018-05-27T03:59:44.316Z,6.07
2018-05-27T04:01:55.542Z,6.53
2018-05-27T04:04:18.811Z,6.63
2018-05-27T04:06:42.142Z,6.50
2018-05-27T04:08:53.275Z,6.77
2018-05-27T04:11:04.348Z,6.47
2018-05-27T04:13:15.442Z,6.50
2018-05-27T04:15:26.522Z,7.17
2018-05-27T04:17:37.735Z,6.90
2018-05-27T04:19:48.808Z,7.37
2018-05-27T04:21:59.899Z,7.03
2018-05-27T04:24:11.015Z,7.67
2018-05-27T04:26:22.088Z,6.27
2018-05-27T04:28:33.311Z,7.10
2018-05-27T04:30:44.397Z,6.80
2018-05-27T04:32:55.555Z,7.50
2018-05-27T04:35:06.650Z,5.77
2018-05-27T04:37:17.723Z,7.23
2018-05-27T04:39:28.791Z,7.50
2018-05-27T04:41:39.887Z,7.13
2018-05-27T04:43:50.964Z,7.20
2018-05-27T04:46:02.110Z,7.17
2018-05-27T04:48:13.214Z,7.03
2018-05-27T04:50:24.462Z,7.60
2018-05-27T04:52:35.578Z,7.20
2018-05-27T04:54:46.714Z,7.70
2018-05-27T04:56:57.930Z,6.40
2018-05-27T04:59:09.039Z,7.00
2018-05-27T05:01:20.090Z,7.60
2018-05-27T05:03:31.162Z,7.80
2018-05-27T05:05:42.282Z,7.40
2018-05-27T05:07:53.545Z,7.47
2018-05-27T05:10:04.605Z,7.33
2018-05-27T05:12:15.827Z,7.83
2018-05-27T05:14:26.879Z,7.70
2018-05-27T05:16:38.160Z,7.17
2018-05-27T05:18:49.238Z,7.03
2018-05-27T05:21:00.306Z,7.77
2018-05-27T05:23:11.410Z,7.53
2018-05-27T05:25:22.459Z,7.40
2018-05-27T05:27:33.554Z,7.83
2018-05-27T05:29:44.682Z,8.00
2018-05-27T05:31:55.855Z,6.50
2018-05-27T05:34:07.040Z,7.23
2018-05-27T05:36:18.176Z,7.30
2018-05-27T05:38:29.176Z,6.97
2018-05-27T05:40:40.278Z,6.73
2018-05-27T05:42:51.348Z,6.40
2018-05-27T05:45:02.431Z,7.23
2018-05-27T05:47:13.541Z,6.97
2018-05-27T05:49:24.696Z,6.90
2018-05-27T05:51:36.604Z,5.30
2018-05-27T05:53:47.718Z,6.33
2018-05-27T05:55:58.874Z,5.67
2018-05-27T05:58:09.946Z,7.20
2018-05-27T06:00:21.044Z,6.67
2018-05-27T06:02:32.170Z,7.17
2018-05-27T06:04:43.291Z,6.43
2018-05-27T06:06:54.354Z,7.43
2018-05-27T06:09:05.421Z,6.67
2018-05-27T06:11:16.530Z,6.07
2018-05-27T06:13:27.701Z,7.10
2018-05-27T06:15:38.759Z,6.10
2018-05-27T06:17:50.010Z,5.33
2018-05-27T06:20:01.100Z,6.87
2018-05-27T06:22:12.291Z,5.13
2018-05-27T06:24:23.359Z,6.53
2018-05-27T06:26:34.435Z,5.30
2018-05-27T06:28:45.505Z,6.90
2018-05-27T06:30:56.666Z,7.17
2018-05-27T06:33:07.915Z,7.03
2018-05-27T06:35:18.981Z,5.33
2018-05-27T06:37:30.187Z,5.83
2018-05-27T06:39:41.250Z,6.50
2018-05-27T06:41:52.363Z,5.97
2018-05-27T06:44:03.438Z,6.33
2018-05-27T06:46:14.505Z,4.90
2018-05-27T06:48:25.673Z,5.50
2018-05-27T06:50:36.751Z,5.73
2018-05-27T06:52:48.046Z,6.40
2018-05-27T06:54:59.203Z,6.00
2018-05-27T06:57:10.346Z,5.40
2018-05-27T06:59:25.404Z,5.23
2018-05-27T07:01:36.510Z,5.73
2018-05-27T07:03:47.578Z,6.07
2018-05-27T07:05:58.693Z,5.97
2018-05-27T07:08:11.634Z,5.57
2018-05-27T07:10:22.749Z,6.40
2018-05-27T07:12:33.947Z,5.40
2018-05-27T07:14:45.071Z,6.33
2018-05-27T07:16:56.178Z,5.37
2018-05-27T07:19:07.284Z,6.23
2018-05-27T07:21:18.460Z,5.50
2018-05-27T07:23:29.547Z,5.70
2018-05-27T07:25:40.697Z,5.97
2018-05-27T07:27:51.785Z,5.67
2018-05-27T07:30:02.959Z,5.87
2018-05-27T07:32:14.105Z,6.33
2018-05-27T07:34:25.230Z,5.90
2018-05-27T07:36:36.425Z,6.00
2018-05-27T07:38:47.526Z,6.10
2018-05-27T07:40:58.630Z,6.80
2018-05-27T07:43:09.722Z,6.70
2018-05-27T07:45:20.834Z,6.03
2018-05-27T07:47:31.922Z,5.53
2018-05-27T07:49:43.079Z,5.40
2018-05-27T07:51:54.245Z,5.67
2018-05-27T07:54:05.323Z,5.80
2018-05-27T07:56:16.498Z,5.90
2018-05-27T07:58:27.672Z,5.53
2018-05-27T08:00:38.690Z,6.10
2018-05-27T08:02:49.812Z,6.07
2018-05-27T08:05:00.905Z,5.93
2018-05-27T08:07:12.061Z,6.03
2018-05-27T08:09:23.161Z,5.40
2018-05-27T08:11:34.419Z,5.93
2018-05-27T08:13:45.476Z,5.53
2018-05-27T08:15:57.407Z,5.60
2018-05-27T08:18:08.596Z,5.33
2018-05-27T08:20:19.727Z,5.60
2018-05-27T08:22:31.072Z,5.10
2018-05-27T08:24:42.284Z,5.00
2018-05-27T08:26:53.408Z,5.10
2018-05-27T08:29:04.695Z,5.17
2018-05-27T08:31:15.763Z,4.87
2018-05-27T08:33:26.908Z,4.77
2018-05-27T08:35:38.020Z,5.27
2018-05-27T08:37:49.107Z,4.87
2018-05-27T08:40:00.235Z,5.10
2018-05-27T08:42:11.386Z,5.13
2018-05-27T08:44:22.507Z,4.90
2018-05-27T08:46:33.635Z,5.00
2018-05-27T08:48:44.894Z,5.10
2018-05-27T08:50:55.987Z,5.37
2018-05-27T08:53:07.039Z,5.20
2018-05-27T08:55:18.158Z,4.83
2018-05-27T08:57:29.238Z,4.77
2018-05-27T08:59:40.446Z,5.00
2018-05-27T09:01:51.514Z,4.63
2018-05-27T09:04:02.679Z,5.30
2018-05-27T09:06:13.895Z,4.80
2018-05-27T09:08:25.127Z,5.20
2018-05-27T09:10:36.356Z,4.23
2018-05-27T09:12:47.473Z,5.03
2018-05-27T09:14:58.683Z,5.33
2018-05-27T09:17:09.742Z,4.90
2018-05-27T09:19:20.853Z,4.83
2018-05-27T09:21:31.985Z,4.97
2018-05-27T09:23:43.095Z,4.70
2018-05-27T09:25:56.167Z,4.40
2018-05-27T09:28:07.274Z,4.53
2018-05-27T09:30:18.588Z,4.23
2018-05-27T09:32:29.695Z,4.00
2018-05-27T09:34:40.910Z,4.67
2018-05-27T09:36:52.816Z,3.93
2018-05-27T09:39:04.676Z,4.60
2018-05-27T09:41:15.801Z,4.13
2018-05-27T09:43:28.899Z,4.43
2018-05-27T09:45:39.993Z,4.10
2018-05-27T09:47:51.200Z,3.83
2018-05-27T09:50:02.342Z,4.23
2018-05-27T09:52:13.471Z,4.10
2018-05-27T09:54:24.697Z,3.77
2018-05-27T09:56:35.814Z,3.83
2018-05-27T09:58:46.958Z,3.30
2018-05-27T10:00:58.059Z,3.73
2018-05-27T10:03:09.191Z,2.90
2018-05-27T10:05:20.318Z,3.73
2018-05-27T10:07:31.428Z,3.80
2018-05-27T10:09:42.710Z,3.67
2018-05-27T10:11:53.862Z,3.67
2018-05-27T10:14:05.058Z,3.93
2018-05-27T10:16:16.158Z,3.90
2018-05-27T10:18:27.290Z,4.77
2018-05-27T10:20:38.407Z,4.50
2018-05-27T10:22:49.630Z,4.90
2018-05-27T10:25:00.764Z,4.97
2018-05-27T10:27:11.847Z,6.50
2018-05-27T10:29:23.076Z,3.90
2018-05-27T10:31:35.879Z,3.80
2018-05-27T10:33:47.121Z,4.17
2018-05-27T10:35:58.227Z,4.20
2018-05-27T10:38:09.333Z,4.00
2018-05-27T10:40:20.543Z,6.93
2018-05-27T10:42:31.650Z,4.20
2018-05-27T10:44:42.739Z,4.35
2018-05-27T10:46:53.824Z,7.30
2018-05-27T10:49:05.015Z,4.18
2018-05-27T10:51:16.120Z,4.90
2018-05-27T10:53:27.329Z,5.20
2018-05-27T10:55:38.538Z,4.32
2018-05-27T10:57:49.671Z,4.07
2018-05-27T11:00:00.785Z,3.87
2018-05-27T11:02:11.835Z,3.83
2018-05-27T11:04:22.959Z,4.60
2018-05-27T11:06:34.077Z,3.70
2018-05-27T11:08:45.275Z,3.50
2018-05-27T11:10:56.478Z,3.80
2018-05-27T11:13:07.667Z,3.80
2018-05-27T11:15:18.795Z,4.80
2018-05-27T11:17:29.885Z,3.50
2018-05-27T11:19:41.095Z,3.60
2018-05-27T11:21:52.227Z,3.83
2018-05-27T11:24:03.356Z,3.58
2018-05-27T11:26:14.408Z,4.10
2018-05-27T11:28:25.555Z,4.00
2018-05-27T11:30:36.763Z,3.45
2018-05-27T11:32:47.945Z,3.83
2018-05-27T11:34:59.229Z,4.13
2018-05-27T11:37:10.322Z,4.00
2018-05-27T11:39:21.576Z,3.50
2018-05-27T11:41:32.753Z,3.40
2018-05-27T11:43:43.906Z,4.30
2018-05-27T11:45:55.102Z,3.67
2018-05-27T11:48:06.241Z,3.80
2018-05-27T11:50:17.362Z,3.97
2018-05-27T11:52:28.524Z,4.03
2018-05-27T11:54:39.645Z,3.83
2018-05-27T11:56:50.828Z,3.80
2018-05-27T11:59:01.974Z,3.70
2018-05-27T12:01:13.174Z,3.63
2018-05-27T12:03:24.303Z,3.77
2018-05-27T12:05:35.579Z,3.63
2018-05-27T12:07:46.663Z,4.23
2018-05-27T12:09:57.737Z,3.37
2018-05-27T12:12:08.923Z,3.40
2018-05-27T12:14:20.011Z,4.03
2018-05-27T12:16:31.286Z,3.70
2018-05-27T12:18:42.356Z,3.20
2018-05-27T12:20:53.562Z,3.97
2018-05-27T12:23:04.698Z,3.80
2018-05-27T12:25:15.955Z,4.00
2018-05-27T12:27:27.143Z,3.63
2018-05-27T12:29:38.295Z,3.80
2018-05-27T12:31:49.403Z,3.27
2018-05-27T12:34:00.507Z,3.70
2018-05-27T12:36:11.612Z,3.90
2018-05-27T12:38:22.724Z,3.53
2018-05-27T12:40:33.814Z,3.57
2018-05-27T12:42:45.068Z,3.50
2018-05-27T12:44:56.134Z,4.00
2018-05-27T12:47:07.278Z,4.07
2018-05-27T12:49:18.479Z,3.73
2018-05-27T12:51:29.568Z,3.90
2018-05-27T12:53:40.839Z,3.33
2018-05-27T12:55:51.920Z,4.23
2018-05-27T12:58:03.069Z,3.87
2018-05-27T13:00:14.195Z,3.63
2018-05-27T13:02:25.404Z,4.00
2018-05-27T13:04:36.506Z,3.60
2018-05-27T13:06:47.659Z,3.90
2018-05-27T13:08:58.939Z,4.17
2018-05-27T13:11:10.010Z,3.67
2018-05-27T13:13:21.320Z,4.10
2018-05-27T13:15:32.439Z,3.80
2018-05-27T13:17:43.599Z,4.43
2018-05-27T13:19:54.714Z,3.30
2018-05-27T13:22:05.764Z,3.73
2018-05-27T13:24:16.852Z,3.80
2018-05-27T13:26:27.978Z,3.93
2018-05-27T13:28:39.176Z,4.20
2018-05-27T13:30:50.334Z,3.90
2018-05-27T13:33:01.488Z,3.70
2018-05-27T13:35:12.597Z,4.10
2018-05-27T13:37:27.086Z,4.17
2018-05-27T13:39:38.202Z,4.60
2018-05-27T13:41:49.395Z,3.90
2018-05-27T13:44:00.529Z,4.17
2018-05-27T13:46:11.794Z,4.00
2018-05-27T13:48:22.985Z,4.03
2018-05-27T13:50:34.147Z,3.90
2018-05-27T13:52:45.352Z,3.90
2018-05-27T13:54:56.462Z,4.53
2018-05-27T13:57:07.761Z,4.30
2018-05-27T13:59:18.840Z,4.23
2018-05-27T14:01:29.972Z,4.00
2018-05-27T14:03:41.094Z,3.97
2018-05-27T14:05:52.170Z,3.73
2018-05-27T14:08:03.355Z,3.93
2018-05-27T14:10:14.476Z,4.30
2018-05-27T14:12:25.605Z,3.83
2018-05-27T14:14:36.686Z,3.83
2018-05-27T14:16:47.851Z,4.27
2018-05-27T14:18:58.918Z,3.77
2018-05-27T14:21:10.015Z,3.60
2018-05-27T14:23:21.118Z,3.90
2018-05-27T14:25:32.258Z,3.60
2018-05-27T14:27:43.499Z,3.57
2018-05-27T14:29:54.579Z,3.87
2018-05-27T14:32:05.818Z,4.40
2018-05-27T14:34:16.882Z,4.00
2018-05-27T14:36:28.009Z,4.10
2018-05-27T14:38:39.170Z,4.27
2018-05-27T14:40:50.248Z,4.33
2018-05-27T14:43:01.338Z,4.77
2018-05-27T14:45:12.474Z,4.50
2018-05-27T14:47:23.650Z,4.50
2018-05-27T14:49:34.784Z,4.03
2018-05-27T14:51:45.951Z,4.40
2018-05-27T14:53:57.054Z,4.17
2018-05-27T14:56:08.195Z,4.47
2018-05-27T14:58:19.266Z,4.33
2018-05-27T15:00:30.383Z,4.13
2018-05-27T15:02:41.478Z,3.63
2018-05-27T15:04:52.591Z,3.40
2018-05-27T15:07:03.778Z,3.67
2018-05-27T15:09:14.839Z,4.20
2018-05-27T15:11:26.014Z,3.50
2018-05-27T15:13:37.143Z,3.90
2018-05-27T15:15:48.276Z,4.00
2018-05-27T15:17:59.407Z,3.93
2018-05-27T15:20:10.568Z,3.90
2018-05-27T15:22:21.683Z,4.77
2018-05-27T15:24:32.746Z,4.00
2018-05-27T15:26:43.851Z,4.17
2018-05-27T15:28:55.089Z,4.47
2018-05-27T15:31:06.215Z,4.87
2018-05-27T15:33:17.294Z,5.40
2018-05-27T15:35:28.400Z,5.10
2018-05-27T15:37:39.560Z,5.60
2018-05-27T15:39:50.632Z,5.03
2018-05-27T15:42:01.783Z,5.30
2018-05-27T15:44:12.897Z,4.60
2018-05-27T15:46:24.251Z,4.93
2018-05-27T15:48:35.440Z,4.43
2018-05-27T15:50:46.573Z,4.40
2018-05-27T15:52:57.765Z,4.10
2018-05-27T15:55:08.872Z,4.00
2018-05-27T15:57:20.089Z,4.77
2018-05-27T15:59:31.217Z,4.60
2018-05-27T16:01:42.348Z,4.70
2018-05-27T16:03:53.430Z,4.30
2018-05-27T16:06:04.560Z,3.70
2018-05-27T16:08:15.677Z,4.37
2018-05-27T16:10:26.826Z,4.90
2018-05-27T16:12:38.115Z,4.13
2018-05-27T16:14:49.358Z,4.03
2018-05-27T16:17:00.679Z,4.30
2018-05-27T16:19:11.884Z,4.33
2018-05-27T16:21:22.962Z,4.00
2018-05-27T16:23:34.206Z,4.17
2018-05-27T16:25:45.394Z,4.40
2018-05-27T16:27:56.551Z,4.63
2018-05-27T16:30:07.640Z,4.97
2018-05-27T16:32:18.776Z,4.97
2018-05-27T16:34:29.862Z,4.97
2018-05-27T16:36:40.946Z,5.20
2018-05-27T16:38:52.235Z,4.63
2018-05-27T16:41:03.435Z,4.77
2018-05-27T16:43:14.585Z,4.87
2018-05-27T16:45:25.720Z,4.43
2018-05-27T16:47:36.827Z,5.27
2018-05-27T16:49:48.031Z,5.27
2018-05-27T16:51:59.188Z,7.57
2018-05-27T16:54:10.272Z,4.93
2018-05-27T16:56:21.354Z,4.07
2018-05-27T16:58:32.579Z,6.03
2018-05-27T17:00:43.705Z,8.60
2018-05-27T17:02:54.839Z,13.27
2018-05-27T17:05:06.116Z,7.57
2018-05-27T17:07:17.215Z,4.87
2018-05-27T17:09:28.523Z,6.03
2018-05-27T17:11:39.641Z,5.23
2018-05-27T17:13:50.771Z,6.27
2018-05-27T17:16:01.938Z,8.07
2018-05-27T17:18:13.031Z,7.93
2018-05-27T17:20:24.135Z,6.37
2018-05-27T17:22:35.248Z,4.90
2018-05-27T17:24:46.356Z,6.57
2018-05-27T17:26:57.454Z,6.80
2018-05-27T17:29:08.670Z,5.27
2018-05-27T17:31:19.763Z,5.60
2018-05-27T17:33:30.855Z,4.40
2018-05-27T17:35:42.041Z,5.47
2018-05-27T17:37:53.122Z,4.97
2018-05-27T17:40:04.255Z,5.30
2018-05-27T17:42:15.346Z,5.53
2018-05-27T17:44:26.465Z,5.53
2018-05-27T17:46:37.625Z,5.07
2018-05-27T17:48:48.816Z,5.23
2018-05-27T17:51:00.082Z,5.87
2018-05-27T17:53:11.223Z,5.63
2018-05-27T17:55:22.347Z,5.83
2018-05-27T17:57:33.494Z,5.73
2018-05-27T17:59:44.569Z,10.60
2018-05-27T18:01:55.668Z,7.67
2018-05-27T18:04:06.917Z,5.87
2018-05-27T18:06:18.006Z,5.87
2018-05-27T18:08:29.170Z,6.10
2018-05-27T18:10:40.451Z,6.80
2018-05-27T18:12:51.606Z,6.97
2018-05-27T18:15:02.746Z,6.03
2018-05-27T18:17:13.858Z,6.23
2018-05-27T18:19:25.006Z,7.30
2018-05-27T18:21:36.110Z,8.10
2018-05-27T18:23:47.235Z,6.27
2018-05-27T18:25:58.469Z,6.60
2018-05-27T18:28:09.547Z,6.47
2018-05-27T18:30:20.711Z,6.93
2018-05-27T18:32:31.785Z,6.70
2018-05-27T18:34:42.927Z,6.83
2018-05-27T18:36:54.023Z,6.90
2018-05-27T18:39:05.174Z,7.23
2018-05-27T18:41:16.326Z,6.73
2018-05-27T18:43:27.387Z,6.07
2018-05-27T18:45:38.646Z,6.77
2018-05-27T18:47:49.735Z,7.13
2018-05-27T18:50:00.876Z,7.50
2018-05-27T18:52:12.107Z,6.53
2018-05-27T18:54:23.328Z,6.53
2018-05-27T18:56:34.542Z,7.00
2018-05-27T18:58:45.652Z,6.93
2018-05-27T19:00:56.876Z,8.07
2018-05-27T19:03:07.950Z,7.50
2018-05-27T19:05:19.050Z,6.77
2018-05-27T19:07:30.152Z,6.93
2018-05-27T19:09:41.293Z,7.17
2018-05-27T19:11:52.440Z,6.53
2018-05-27T19:14:03.582Z,7.23
2018-05-27T19:16:14.754Z,7.03
2018-05-27T19:18:25.870Z,7.60
2018-05-27T19:20:37.054Z,7.00
2018-05-27T19:22:48.134Z,7.03
2018-05-27T19:24:59.238Z,7.23
2018-05-27T19:27:10.347Z,7.37
2018-05-27T19:29:21.448Z,6.93
2018-05-27T19:31:32.697Z,6.47
2018-05-27T19:33:43.831Z,7.33
2018-05-27T19:35:55.018Z,7.10
2018-05-27T19:38:06.130Z,8.20
2018-05-27T19:40:17.268Z,7.60
2018-05-27T19:42:28.371Z,7.90
2018-05-27T19:44:39.474Z,7.73
2018-05-27T19:46:50.580Z,7.87
2018-05-27T19:49:01.735Z,7.90
2018-05-27T19:51:12.866Z,7.77
2018-05-27T19:53:24.035Z,8.13
2018-05-27T19:55:35.150Z,8.60
2018-05-27T19:57:46.363Z,8.00
2018-05-27T19:59:57.515Z,7.40
2018-05-27T20:02:08.699Z,7.73
2018-05-27T20:04:19.794Z,7.40
2018-05-27T20:06:30.910Z,7.53
2018-05-27T20:08:42.013Z,7.17
2018-05-27T20:10:53.223Z,7.67
2018-05-27T20:13:04.367Z,7.50
2018-05-27T20:15:15.508Z,7.83
2018-05-27T20:17:26.712Z,7.30
2018-05-27T20:19:37.861Z,7.67
2018-05-27T20:21:49.047Z,7.50
2018-05-27T20:24:00.175Z,7.47
2018-05-27T20:26:11.305Z,7.70
2018-05-27T20:28:22.491Z,7.63
2018-05-27T20:30:33.610Z,7.63
2018-05-27T20:32:44.755Z,7.30
2018-05-27T20:34:55.861Z,6.57
2018-05-27T20:37:07.049Z,7.40
2018-05-27T20:39:18.253Z,6.97
2018-05-27T20:41:29.328Z,7.40
2018-05-27T20:43:40.470Z,7.00
2018-05-27T20:45:51.595Z,6.93
2018-05-27T20:48:02.746Z,7.33
2018-05-27T20:50:13.823Z,7.73
2018-05-27T20:52:24.952Z,7.30
2018-05-27T20:54:36.060Z,7.60
2018-05-27T20:56:47.282Z,7.80
2018-05-27T20:58:58.406Z,7.60
2018-05-27T21:01:09.598Z,8.43
2018-05-27T21:03:20.770Z,6.97
2018-05-27T21:05:31.886Z,7.70
2018-05-27T21:07:43.087Z,7.30
2018-05-27T21:09:54.202Z,6.87
2018-05-27T21:12:05.305Z,5.83
2018-05-27T21:14:16.406Z,6.53
2018-05-27T21:16:27.515Z,6.00
2018-05-27T21:18:38.629Z,6.77
2018-05-27T21:20:49.798Z,6.40
2018-05-27T21:23:01.004Z,6.83
2018-05-27T21:25:12.074Z,6.83
2018-05-27T21:27:23.258Z,6.63
2018-05-27T21:29:34.434Z,6.83
2018-05-27T21:31:45.542Z,6.80
2018-05-27T21:33:56.630Z,6.50
2018-05-27T21:36:07.750Z,6.57
2018-05-27T21:38:18.845Z,6.57
2018-05-27T21:40:29.959Z,6.57
2018-05-27T21:42:41.083Z,7.17
2018-05-27T21:44:52.165Z,7.07
2018-05-27T21:47:03.323Z,6.90
2018-05-27T21:49:14.418Z,6.83
2018-05-27T21:51:25.554Z,7.10
2018-05-27T21:53:36.638Z,7.47
2018-05-27T21:55:47.714Z,7.10
2018-05-27T21:57:58.915Z,6.87
2018-05-27T22:00:09.995Z,7.33
2018-05-27T22:02:21.227Z,6.83
2018-05-27T22:04:32.305Z,6.53
2018-05-27T22:06:43.530Z,6.50
2018-05-27T22:08:54.613Z,7.17
2018-05-27T22:11:05.667Z,6.90
2018-05-27T22:13:16.816Z,6.60
2018-05-27T22:15:27.907Z,7.10
2018-05-27T22:17:39.083Z,7.00
2018-05-27T22:19:50.143Z,6.10
2018-05-27T22:22:01.238Z,6.23
2018-05-27T22:24:12.370Z,6.73
2018-05-27T22:26:23.628Z,6.20
2018-05-27T22:28:34.712Z,6.53
2018-05-27T22:30:45.778Z,6.73
2018-05-27T22:32:56.866Z,6.53
2018-05-27T22:35:07.964Z,6.33
2018-05-27T22:37:19.047Z,6.67
2018-05-27T22:39:30.147Z,6.87
2018-05-27T22:41:41.369Z,6.20
2018-05-27T22:43:52.482Z,6.70
2018-05-27T22:46:03.749Z,7.03
2018-05-27T22:48:14.843Z,6.70
2018-05-27T22:50:25.943Z,7.17
2018-05-27T22:52:37.035Z,6.73
2018-05-27T22:54:48.159Z,6.20
2018-05-27T22:56:59.266Z,6.53
2018-05-27T22:59:10.427Z,7.13
2018-05-27T23:01:21.550Z,6.50
2018-05-27T23:03:32.620Z,6.57
2018-05-27T23:05:43.748Z,6.60
2018-05-27T23:07:54.815Z,6.73
2018-05-27T23:10:06.744Z,6.90
2018-05-27T23:12:17.830Z,6.07
2018-05-27T23:14:28.924Z,7.23
2018-05-27T23:16:40.044Z,6.37
2018-05-27T23:18:51.134Z,6.53
2018-05-27T23:21:02.234Z,7.03
2018-05-27T23:23:13.367Z,6.97
2018-05-27T23:25:24.533Z,6.53
2018-05-27T23:27:35.633Z,7.20
2018-05-27T23:29:46.767Z,6.87
2018-05-27T23:31:57.950Z,6.90
2018-05-27T23:34:09.110Z,7.23
2018-05-27T23:36:20.171Z,6.60
2018-05-27T23:38:31.231Z,6.63
2018-05-27T23:40:42.312Z,7.00
2018-05-27T23:42:53.590Z,6.90
2018-05-27T23:45:04.646Z,6.70
2018-05-27T23:47:15.851Z,7.20
2018-05-27T23:49:26.903Z,7.83
2018-05-27T23:51:38.071Z,7.23
2018-05-27T23:53:49.150Z,6.43
2018-05-27T23:56:00.206Z,6.30
2018-05-27T23:58:11.300Z,6.80
